createdAt,value
2018-06-12T00:04:49.725Z,12.53
2018-06-12T00:07:17.982Z,13.65
2018-06-12T00:09:46.236Z,11.80
2018-06-12T00:12:15.011Z,12.15
2018-06-12T00:14:43.487Z,11.68
2018-06-12T00:17:11.534Z,11.55
2018-06-12T00:19:40.347Z,12.03
2018-06-12T00:22:10.175Z,13.68
2018-06-12T00:24:38.287Z,12.07
2018-06-12T00:27:06.360Z,11.70
2018-06-12T00:39:19.103Z,12.20
2018-06-12T00:41:47.284Z,12.30
2018-06-12T00:44:15.943Z,12.37
2018-06-12T00:46:54.142Z,13.18
2018-06-12T00:49:29.717Z,13.48
2018-06-12T00:51:58.510Z,13.83
2018-06-12T00:54:28.195Z,14.43
2018-06-12T00:57:02.793Z,12.10
2018-06-12T00:59:31.055Z,13.45
2018-06-12T01:01:58.888Z,12.68
2018-06-12T01:04:29.453Z,12.98
2018-06-12T01:06:58.276Z,12.43
2018-06-12T01:09:26.790Z,12.35
2018-06-12T01:11:54.698Z,15.60
2018-06-12T01:14:22.258Z,13.53
2018-06-12T01:16:50.191Z,12.90
2018-06-12T01:19:26.801Z,13.05
2018-06-12T01:21:59.427Z,12.90
2018-06-12T01:24:28.073Z,13.43
2018-06-12T01:27:00.344Z,12.98
2018-06-12T01:29:29.048Z,12.30
2018-06-12T01:31:57.925Z,13.30
2018-06-12T01:44:10.738Z,11.38
2018-06-12T01:46:45.048Z,12.20
2018-06-12T01:49:14.897Z,12.88
2018-06-12T01:51:49.068Z,14.13
2018-06-12T01:54:23.147Z,13.80
2018-06-12T01:56:52.228Z,13.58
2018-06-12T01:59:19.793Z,12.88
2018-06-12T02:01:48.013Z,12.53
2018-06-12T02:04:17.101Z,12.07
2018-06-12T02:16:35.600Z,12.70
2018-06-12T02:19:07.820Z,13.10
2018-06-12T02:21:36.371Z,14.05
2018-06-12T02:24:03.954Z,12.68
2018-06-12T02:36:17.272Z,13.25
2018-06-12T02:38:50.088Z,11.45
2018-06-12T02:41:17.756Z,12.05
2018-06-12T02:43:46.190Z,13.15
2018-06-12T02:46:14.021Z,13.28
2018-06-12T03:01:42.394Z,12.47
2018-06-12T03:04:14.094Z,12.43
2018-06-12T03:06:41.613Z,12.23
2018-06-12T03:09:09.647Z,12.53
2018-06-12T03:11:37.123Z,11.88
2018-06-12T03:23:53.746Z,11.40
2018-06-12T03:26:22.408Z,11.83
2018-06-12T03:28:54.232Z,12.00
2018-06-12T03:31:21.696Z,12.85
2018-06-12T03:33:54.284Z,11.95
2018-06-12T03:36:22.266Z,11.18
2018-06-12T03:38:51.413Z,12.63
2018-06-12T03:41:19.464Z,10.95
2018-06-12T03:43:47.014Z,12.18
2018-06-12T03:46:16.098Z,10.65
2018-06-12T03:48:43.911Z,10.45
2018-06-12T03:51:11.482Z,12.47
2018-06-12T03:53:39.626Z,12.33
2018-06-12T03:56:10.394Z,12.70
2018-06-12T03:58:37.802Z,10.82
2018-06-12T04:01:05.264Z,10.88
2018-06-12T04:03:32.687Z,10.88
2018-06-12T04:06:03.944Z,11.55
2018-06-12T04:08:31.327Z,11.50
2018-06-12T04:10:59.870Z,10.85
2018-06-12T04:13:28.339Z,10.03
2018-06-12T04:15:55.761Z,10.40
2018-06-12T04:18:24.494Z,11.30
2018-06-12T04:20:51.907Z,10.50
2018-06-12T04:23:19.381Z,10.20
2018-06-12T04:25:48.866Z,10.15
2018-06-12T04:28:20.933Z,10.63
2018-06-12T04:30:48.993Z,10.50
2018-06-12T04:33:20.337Z,10.68
2018-06-12T04:35:49.203Z,10.43
2018-06-12T04:38:17.443Z,10.55
2018-06-12T04:40:54.649Z,10.82
2018-06-12T04:43:22.889Z,10.78
2018-06-12T04:45:54.795Z,9.53
2018-06-12T04:48:22.459Z,10.18
2018-06-12T04:50:49.930Z,10.25
2018-06-12T04:53:23.534Z,10.72
2018-06-12T04:55:52.614Z,10.18
2018-06-12T04:58:21.119Z,11.40
2018-06-12T05:00:48.533Z,10.68
2018-06-12T05:03:16.362Z,9.40
2018-06-12T05:05:44.336Z,10.20
2018-06-12T05:08:12.426Z,10.00
2018-06-12T05:10:39.941Z,10.03
2018-06-12T05:13:07.378Z,10.68
2018-06-12T05:15:34.711Z,9.98
2018-06-12T05:18:02.028Z,9.68
2018-06-12T05:20:29.363Z,10.32
2018-06-12T05:22:56.707Z,9.95
2018-06-12T05:25:24.043Z,11.15
2018-06-12T05:27:51.354Z,10.28
2018-06-12T05:30:18.641Z,10.98
2018-06-12T05:32:45.948Z,10.43
2018-06-12T05:35:13.340Z,9.03
2018-06-12T05:37:40.606Z,10.40
2018-06-12T05:40:07.967Z,9.48
2018-06-12T05:42:35.341Z,9.15
2018-06-12T05:45:02.673Z,9.68
2018-06-12T05:47:30.006Z,9.23
2018-06-12T05:49:57.344Z,9.40
2018-06-12T05:52:24.680Z,9.00
2018-06-12T05:54:52.065Z,9.90
2018-06-12T05:57:19.416Z,8.65
2018-06-12T05:59:46.718Z,9.05
2018-06-12T06:02:14.078Z,8.60
2018-06-12T06:04:41.378Z,7.62
2018-06-12T06:07:08.675Z,7.87
2018-06-12T06:09:35.980Z,7.25
2018-06-12T06:12:03.324Z,7.60
2018-06-12T06:14:30.684Z,7.37
2018-06-12T06:16:58.028Z,6.75
2018-06-12T06:19:25.404Z,6.78
2018-06-12T06:21:52.743Z,7.05
2018-06-12T06:24:20.134Z,7.12
2018-06-12T06:26:47.459Z,7.62
2018-06-12T06:29:14.804Z,6.22
2018-06-12T06:31:42.128Z,6.45
2018-06-12T06:34:09.425Z,5.65
2018-06-12T06:36:36.749Z,6.40
2018-06-12T06:39:06.142Z,5.58
2018-06-12T06:41:33.473Z,5.42
2018-06-12T06:44:00.793Z,8.08
2018-06-12T06:46:28.174Z,5.37
2018-06-12T06:48:55.635Z,5.85
2018-06-12T06:51:23.164Z,4.92
2018-06-12T06:53:50.537Z,5.70
2018-06-12T06:56:17.839Z,5.35
2018-06-12T06:58:45.158Z,6.97
2018-06-12T07:01:12.514Z,6.33
2018-06-12T07:03:39.879Z,5.33
2018-06-12T07:06:11.617Z,5.30
2018-06-12T07:08:38.924Z,4.73
2018-06-12T07:11:06.241Z,5.15
2018-06-12T07:13:33.578Z,5.05
2018-06-12T07:16:00.886Z,5.70
2018-06-12T07:18:28.271Z,4.90
2018-06-12T07:21:00.816Z,5.57
2018-06-12T07:23:28.122Z,5.47
2018-06-12T07:25:55.467Z,4.47
2018-06-12T07:28:23.141Z,5.10
2018-06-12T07:30:50.504Z,5.62
2018-06-12T07:33:17.819Z,5.00
2018-06-12T07:35:45.667Z,4.55
2018-06-12T07:38:12.952Z,4.72
2018-06-12T07:40:40.322Z,5.00
2018-06-12T07:43:07.644Z,4.53
2018-06-12T07:45:34.990Z,4.87
2018-06-12T07:48:02.296Z,5.12
2018-06-12T07:50:30.327Z,4.97
2018-06-12T07:52:57.609Z,5.17
2018-06-12T07:55:25.303Z,4.20
2018-06-12T07:57:52.627Z,4.60
2018-06-12T08:00:19.924Z,4.55
2018-06-12T08:02:47.223Z,4.75
2018-06-12T08:05:15.065Z,4.78
2018-06-12T08:07:42.356Z,4.70
2018-06-12T08:10:09.687Z,4.47
2018-06-12T08:12:36.998Z,4.60
2018-06-12T08:15:04.315Z,4.60
2018-06-12T08:17:31.679Z,4.12
2018-06-12T08:19:58.986Z,4.00
2018-06-12T08:22:26.492Z,4.20
2018-06-12T08:24:53.768Z,3.85
2018-06-12T08:27:21.043Z,4.28
2018-06-12T08:29:48.450Z,5.12
2018-06-12T08:32:15.687Z,3.83
2018-06-12T08:34:42.982Z,5.57
2018-06-12T08:37:10.262Z,4.60
2018-06-12T08:39:38.017Z,5.23
2018-06-12T08:42:05.505Z,3.50
2018-06-12T08:44:32.781Z,4.53
2018-06-12T08:47:00.078Z,4.50
2018-06-12T08:49:27.427Z,3.90
2018-06-12T08:51:54.886Z,4.10
2018-06-12T08:54:22.210Z,4.40
2018-06-12T08:56:49.524Z,5.20
2018-06-12T08:59:16.844Z,4.75
2018-06-12T09:01:44.164Z,5.03
2018-06-12T09:04:11.450Z,4.20
2018-06-12T09:06:38.745Z,4.33
2018-06-12T09:09:06.552Z,4.83
2018-06-12T09:11:33.892Z,4.43
2018-06-12T09:14:01.202Z,4.67
2018-06-12T09:16:28.479Z,3.50
2018-06-12T09:18:55.826Z,4.67
2018-06-12T09:21:23.124Z,4.20
2018-06-12T09:23:50.416Z,4.60
2018-06-12T09:26:17.730Z,4.10
2018-06-12T09:28:45.037Z,4.77
2018-06-12T09:31:12.337Z,4.83
2018-06-12T09:33:39.630Z,4.73
2018-06-12T09:36:12.460Z,4.43
2018-06-12T09:38:39.748Z,5.43
2018-06-12T09:41:07.003Z,5.80
2018-06-12T09:43:34.368Z,5.10
2018-06-12T09:46:01.699Z,4.57
2018-06-12T09:48:29.047Z,4.20
2018-06-12T09:50:56.318Z,4.47
2018-06-12T09:53:23.606Z,5.10
2018-06-12T09:55:50.916Z,5.43
2018-06-12T09:58:22.694Z,4.63
2018-06-12T10:00:56.371Z,4.17
2018-06-12T10:03:24.279Z,4.67
2018-06-12T10:05:55.690Z,5.13
2018-06-12T10:08:23.147Z,4.90
2018-06-12T10:10:51.352Z,4.87
2018-06-12T10:13:20.321Z,4.33
2018-06-12T10:15:47.809Z,4.23
2018-06-12T10:18:15.238Z,5.07
2018-06-12T10:20:42.674Z,4.80
2018-06-12T10:23:10.059Z,4.57
2018-06-12T10:25:37.950Z,5.13
2018-06-12T10:28:05.316Z,4.47
2018-06-12T10:30:32.672Z,5.17
2018-06-12T10:33:00.060Z,4.40
2018-06-12T10:35:27.613Z,5.67
2018-06-12T10:37:55.971Z,5.10
2018-06-12T10:40:23.855Z,5.20
2018-06-12T10:42:55.308Z,5.30
2018-06-12T10:45:22.781Z,5.00
2018-06-12T10:47:53.651Z,4.23
2018-06-12T10:50:24.368Z,5.33
2018-06-12T10:52:56.611Z,5.07
2018-06-12T10:55:25.118Z,4.97
2018-06-12T10:57:53.477Z,5.60
2018-06-12T11:00:24.887Z,5.00
2018-06-12T11:02:54.895Z,6.37
2018-06-12T11:15:17.013Z,5.23
2018-06-12T11:27:29.932Z,5.37
2018-06-12T11:29:57.425Z,5.43
2018-06-12T11:32:25.962Z,5.30
2018-06-12T11:34:54.272Z,5.70
2018-06-12T11:37:23.766Z,6.00
2018-06-12T11:39:51.243Z,5.50
2018-06-12T11:42:18.656Z,6.47
2018-06-12T11:44:46.417Z,7.50
2018-06-12T11:47:14.976Z,6.70
2018-06-12T11:49:43.487Z,7.00
2018-06-12T11:52:10.889Z,6.73
2018-06-12T11:54:41.376Z,6.90
2018-06-12T11:57:10.391Z,6.63
2018-06-12T11:59:38.199Z,6.93
2018-06-12T12:02:10.173Z,6.20
2018-06-12T12:04:37.632Z,6.50
2018-06-12T12:07:05.061Z,6.50
2018-06-12T12:09:32.367Z,7.10
2018-06-12T12:11:59.672Z,7.30
2018-06-12T12:14:26.949Z,7.27
2018-06-12T12:16:54.299Z,6.87
2018-06-12T12:19:21.566Z,6.90
2018-06-12T12:21:48.953Z,6.97
2018-06-12T12:24:16.322Z,6.50
2018-06-12T12:26:43.663Z,6.73
2018-06-12T12:29:10.984Z,6.00
2018-06-12T12:31:38.328Z,6.83
2018-06-12T12:34:05.774Z,5.70
2018-06-12T12:36:33.121Z,6.13
2018-06-12T12:39:00.423Z,6.87
2018-06-12T12:41:27.842Z,6.40
2018-06-12T12:43:55.184Z,5.60
2018-06-12T12:46:22.463Z,6.07
2018-06-12T12:48:49.930Z,5.87
2018-06-12T12:51:17.273Z,5.60
2018-06-12T12:53:44.586Z,6.23
2018-06-12T12:56:11.930Z,5.60
2018-06-12T12:58:39.287Z,5.43
2018-06-12T13:01:06.603Z,5.80
2018-06-12T13:03:33.900Z,6.23
2018-06-12T13:06:01.250Z,5.50
2018-06-12T13:08:28.574Z,5.40
2018-06-12T13:10:55.883Z,6.00
2018-06-12T13:13:23.229Z,5.70
2018-06-12T13:15:50.942Z,5.10
2018-06-12T13:18:18.228Z,5.60
2018-06-12T13:20:45.620Z,5.97
2018-06-12T13:23:12.868Z,6.10
2018-06-12T13:25:40.154Z,5.60
2018-06-12T13:28:07.475Z,5.67
2018-06-12T13:30:34.827Z,5.97
2018-06-12T13:33:02.157Z,5.37
2018-06-12T13:35:29.475Z,5.90
2018-06-12T13:37:56.843Z,5.20
2018-06-12T13:40:24.158Z,6.03
2018-06-12T13:42:51.760Z,6.13
2018-06-12T13:45:19.050Z,5.90
2018-06-12T13:47:46.344Z,5.30
2018-06-12T13:50:13.653Z,5.57
2018-06-12T13:52:41.060Z,6.33
2018-06-12T13:55:08.440Z,7.20
2018-06-12T13:57:35.742Z,7.80
2018-06-12T14:00:03.291Z,7.33
2018-06-12T14:02:30.668Z,7.77
2018-06-12T14:04:57.981Z,7.97
2018-06-12T14:07:25.369Z,7.80
2018-06-12T14:09:52.690Z,9.47
2018-06-12T14:12:20.006Z,9.03
2018-06-12T14:14:47.344Z,9.93
2018-06-12T14:17:14.660Z,10.50
2018-06-12T14:19:41.946Z,10.90
2018-06-12T14:22:09.279Z,10.53
2018-06-12T14:24:36.667Z,10.10
2018-06-12T14:27:04.028Z,10.53
2018-06-12T14:29:31.406Z,12.23
2018-06-12T14:31:58.717Z,10.00
2018-06-12T14:34:26.063Z,9.60
2018-06-12T14:36:53.423Z,9.43
2018-06-12T14:39:20.756Z,9.70
2018-06-12T14:41:48.156Z,8.37
2018-06-12T14:44:15.507Z,8.93
2018-06-12T14:46:42.860Z,8.27
2018-06-12T14:49:10.178Z,7.93
2018-06-12T14:51:37.521Z,8.77
2018-06-12T14:54:04.896Z,8.20
2018-06-12T14:56:32.305Z,7.30
2018-06-12T14:59:00.020Z,7.53
2018-06-12T15:01:27.368Z,6.70
2018-06-12T15:03:55.113Z,6.70
2018-06-12T15:06:22.474Z,7.00
2018-06-12T15:08:49.791Z,7.57
2018-06-12T15:11:17.196Z,7.03
2018-06-12T15:13:44.559Z,7.30
2018-06-12T15:16:11.896Z,7.80
2018-06-12T15:18:39.308Z,7.70
2018-06-12T15:21:06.634Z,8.80
2018-06-12T15:23:33.987Z,8.73
2018-06-12T15:26:01.600Z,9.17
2018-06-12T15:28:28.961Z,10.53
2018-06-12T15:30:56.344Z,10.43
2018-06-12T15:33:23.712Z,10.25
2018-06-12T15:35:51.091Z,10.55
2018-06-12T15:38:18.470Z,12.47
2018-06-12T15:40:45.870Z,10.38
2018-06-12T15:43:13.267Z,12.60
2018-06-12T15:45:40.695Z,12.15
2018-06-12T15:48:08.080Z,12.78
2018-06-12T15:50:35.529Z,11.90
2018-06-12T15:53:03.050Z,12.43
2018-06-12T15:55:30.401Z,12.00
2018-06-12T15:57:57.803Z,13.70
2018-06-12T16:00:25.246Z,13.15
2018-06-12T16:02:52.663Z,12.80
2018-06-12T16:05:19.986Z,13.13
2018-06-12T16:07:47.404Z,13.48
2018-06-12T16:10:14.776Z,13.68
2018-06-12T16:12:42.194Z,12.28
2018-06-12T16:15:09.653Z,12.65
2018-06-12T16:17:37.042Z,14.40
2018-06-12T16:20:04.659Z,12.98
2018-06-12T16:22:32.079Z,14.30
2018-06-12T16:24:59.571Z,14.03
2018-06-12T16:27:27.680Z,13.85
2018-06-12T16:29:55.043Z,15.85
2018-06-12T16:32:22.405Z,14.47
2018-06-12T16:34:50.892Z,13.60
2018-06-12T16:37:18.324Z,13.27
2018-06-12T16:39:45.697Z,13.30
2018-06-12T16:42:13.131Z,13.60
2018-06-12T16:44:40.532Z,12.60
2018-06-12T16:47:08.165Z,12.58
2018-06-12T16:49:35.759Z,11.93
2018-06-12T16:52:03.165Z,11.80
2018-06-12T16:54:30.767Z,10.23
2018-06-12T16:56:58.204Z,10.57
2018-06-12T16:59:25.582Z,11.18
2018-06-12T17:01:53.064Z,10.40
2018-06-12T17:04:20.741Z,11.10
2018-06-12T17:06:49.310Z,10.05
2018-06-12T17:19:05.172Z,8.55
2018-06-12T17:21:33.119Z,8.35
2018-06-12T17:24:01.788Z,8.90
2018-06-12T17:26:29.756Z,8.48
2018-06-12T17:29:01.831Z,9.18
2018-06-12T17:31:35.051Z,9.58
2018-06-12T17:34:08.156Z,7.47
2018-06-12T17:36:36.241Z,8.05
2018-06-12T17:39:06.919Z,7.50
2018-06-12T17:41:35.360Z,7.53
2018-06-12T17:44:03.017Z,7.80
2018-06-12T17:46:34.914Z,9.30
2018-06-12T17:49:02.860Z,7.80
2018-06-12T17:51:30.315Z,6.45
2018-06-12T17:53:57.865Z,6.60
2018-06-12T17:56:31.085Z,6.95
2018-06-12T18:08:44.750Z,6.97
2018-06-12T18:11:14.018Z,7.25
2018-06-12T18:13:42.926Z,7.37
2018-06-12T18:16:14.241Z,7.60
2018-06-12T18:18:44.249Z,8.25
2018-06-12T18:21:15.264Z,8.18
2018-06-12T18:23:46.261Z,8.00
2018-06-12T18:26:18.536Z,7.45
2018-06-12T18:28:46.778Z,6.78
2018-06-12T18:31:24.105Z,6.50
2018-06-12T18:33:53.057Z,6.83
2018-06-12T18:36:21.061Z,5.97
2018-06-12T18:38:48.745Z,6.87
2018-06-12T18:41:22.878Z,6.50
2018-06-12T18:43:52.942Z,6.05
2018-06-12T18:46:21.485Z,5.30
2018-06-12T18:48:49.777Z,5.65
2018-06-12T18:51:22.778Z,5.87
2018-06-12T18:53:51.729Z,5.78
2018-06-12T18:56:20.347Z,6.58
2018-06-12T18:58:49.757Z,6.92
2018-06-12T19:01:22.659Z,6.65
2018-06-12T19:03:50.548Z,7.35
2018-06-12T19:06:20.750Z,6.15
2018-06-12T19:08:48.736Z,6.60
2018-06-12T19:11:17.008Z,6.80
2018-06-12T19:13:45.917Z,6.47
2018-06-12T19:16:13.672Z,7.20
2018-06-12T19:18:46.122Z,6.08
2018-06-12T19:21:14.441Z,6.53
2018-06-12T19:23:50.894Z,5.40
2018-06-12T19:26:19.364Z,6.62
2018-06-12T19:28:47.488Z,5.75
2018-06-12T19:31:15.166Z,6.25
2018-06-12T19:33:43.983Z,6.30
2018-06-12T19:36:16.291Z,5.78
2018-06-12T19:38:44.292Z,6.80
2018-06-12T19:41:11.803Z,5.80
2018-06-12T19:43:39.450Z,5.90
2018-06-12T19:46:08.790Z,5.60
2018-06-12T19:48:41.464Z,5.72
2018-06-12T19:51:09.220Z,6.08
2018-06-12T19:53:40.265Z,5.65
2018-06-12T19:56:11.883Z,5.42
2018-06-12T19:58:39.919Z,5.75
2018-06-12T20:01:13.302Z,6.50
2018-06-12T20:03:41.017Z,5.85
2018-06-12T20:06:09.222Z,4.50
2018-06-12T20:08:41.022Z,5.47
2018-06-12T20:11:08.525Z,5.00
2018-06-12T20:13:36.035Z,4.97
2018-06-12T20:16:04.156Z,4.90
2018-06-12T20:28:17.107Z,3.70
2018-06-12T20:30:44.590Z,3.80
2018-06-12T20:33:16.293Z,3.00
2018-06-12T20:35:45.913Z,3.00
2018-06-12T20:38:14.437Z,3.00
2018-06-12T20:40:42.198Z,3.33
2018-06-12T20:43:20.627Z,2.90
2018-06-12T20:45:49.062Z,3.60
2018-06-12T20:48:16.879Z,3.60
2018-06-12T21:00:30.790Z,3.62
2018-06-12T21:02:58.354Z,3.80
2018-06-12T21:05:25.808Z,3.45
2018-06-12T21:07:59.245Z,4.10
2018-06-12T21:10:26.888Z,3.60
2018-06-12T21:25:54.370Z,3.85
2018-06-12T21:28:26.992Z,3.45
2018-06-12T21:30:56.372Z,3.40
2018-06-12T21:33:28.680Z,3.70
2018-06-12T21:35:56.792Z,3.80
2018-06-12T21:51:26.012Z,3.47
2018-06-12T21:53:56.934Z,3.55
2018-06-12T21:56:28.692Z,3.60
2018-06-12T21:58:56.464Z,4.08
2018-06-12T22:01:24.819Z,3.33
2018-06-12T22:03:52.923Z,3.47
2018-06-12T22:06:20.607Z,3.30
2018-06-12T22:08:52.315Z,3.60
2018-06-12T22:21:07.007Z,3.33
2018-06-12T22:23:35.298Z,3.98
2018-06-12T22:26:07.189Z,4.37
2018-06-12T22:28:35.181Z,3.27
2018-06-12T22:31:02.876Z,5.05
2018-06-12T22:33:31.287Z,3.90
2018-06-12T22:36:00.745Z,3.62
2018-06-12T22:38:30.348Z,3.98
2018-06-12T22:40:58.371Z,4.40
2018-06-12T22:43:26.065Z,3.62
2018-06-12T22:45:54.192Z,4.10
2018-06-12T22:48:26.019Z,4.05
2018-06-12T22:50:54.205Z,3.40
2018-06-12T22:53:22.100Z,3.85
2018-06-12T22:55:49.957Z,3.80
2018-06-12T22:58:31.442Z,4.00
2018-06-12T23:01:01.922Z,3.55
2018-06-12T23:03:30.243Z,3.60
2018-06-12T23:05:57.734Z,3.30
2018-06-12T23:08:25.994Z,3.65
2018-06-12T23:10:56.252Z,3.45
2018-06-12T23:13:23.732Z,3.65
2018-06-12T23:15:56.347Z,3.50
2018-06-12T23:18:24.904Z,3.05
2018-06-12T23:20:58.430Z,4.30
2018-06-12T23:23:25.966Z,3.55
2018-06-12T23:25:54.131Z,3.90
2018-06-12T23:28:21.662Z,3.20
2018-06-12T23:30:50.285Z,3.35
2018-06-12T23:33:22.056Z,3.65
2018-06-12T23:35:51.124Z,3.85
2018-06-12T23:38:22.806Z,3.17
2018-06-12T23:40:52.112Z,3.67
2018-06-12T23:43:19.609Z,3.50
2018-06-12T23:45:49.262Z,3.37
2018-06-12T23:48:17.430Z,3.60
2018-06-12T23:50:47.285Z,3.50
2018-06-12T23:53:19.709Z,3.30
2018-06-12T23:55:48.152Z,3.35
2018-06-12T23:58:18.107Z,3.20
